Time;durP1;ratioP1;P1;durP2;ratioP2;P2;SDS_P1;SDS_P2;PMS_P1;PMS_P2;Temp;Humidity;BMP_temperature;BMP_pressure;BME280_temperature;BME280_humidity;BME280_pressure;Samples;Min_cycle;Max_cycle;Signal;HPM_P1;HPM_P2
2021/07/15 00:01:45;;;;;;;28.17;7.33;;;;;;;22.90;63.95;98524.84;2249897;79;20964;-80
2021/07/15 00:04:46;;;;;;;36.03;9.48;;;;;;;23.10;64.11;98624.67;2250134;79;20936;-81
2021/07/15 00:07:47;;;;;;;15.38;7.00;;;;;;;23.27;65.58;98844.52;2262125;77;21022;-80
2021/07/15 00:10:48;;;;;;;16.15;6.83;;;;;;;22.43;69.21;98899.97;2282186;78;20941;-80
2021/07/15 00:13:49;;;;;;;38.92;9.53;;;;;;;21.55;71.62;98877.17;2281873;78;20878;-79
2021/07/15 00:16:51;;;;;;;21.33;8.00;;;;;;;21.24;71.87;98860.88;2281759;78;20910;-80
2021/07/15 00:19:52;;;;;;;32.08;8.03;;;;;;;21.38;71.79;98798.05;2281723;77;20911;-79
2021/07/15 00:22:53;;;;;;;23.75;9.33;;;;;;;21.70;71.13;98766.93;2281455;78;20998;-80
2021/07/15 00:25:54;;;;;;;21.62;9.28;;;;;;;21.86;70.54;98719.84;2281963;77;20962;-79
2021/07/15 00:28:55;;;;;;;21.75;10.08;;;;;;;21.87;70.86;98722.05;2282028;77;20961;-78
2021/07/15 00:31:56;;;;;;;25.88;12.40;;;;;;;22.27;70.66;98708.66;2281927;78;20910;-78
2021/07/15 00:34:57;;;;;;;17.12;9.13;;;;;;;22.58;69.72;98687.97;2282085;78;20934;-78
2021/07/15 00:37:58;;;;;;;22.17;9.55;;;;;;;22.87;68.63;98662.89;2282133;78;20882;-78
2021/07/15 00:40:58;;;;;;;20.20;10.00;;;;;;;23.02;68.78;98638.77;2282186;78;20898;-78
2021/07/15 00:43:59;;;;;;;19.02;9.23;;;;;;;23.17;68.13;98657.63;2281998;78;20934;-81
2021/07/15 00:47:00;;;;;;;15.75;7.78;;;;;;;22.94;67.92;98647.08;2281878;78;20903;-78
2021/07/15 00:50:01;;;;;;;20.00;10.18;;;;;;;23.24;69.05;98630.74;2282012;78;20890;-78
2021/07/15 00:53:02;;;;;;;19.20;9.43;;;;;;;23.66;66.80;98629.41;2281622;78;20950;-78
2021/07/15 00:56:03;;;;;;;15.23;7.58;;;;;;;23.70;65.71;98608.35;2281974;77;20900;-79
2021/07/15 00:59:04;;;;;;;15.83;6.95;;;;;;;23.07;66.98;98579.55;2282109;78;20906;-78
2021/07/15 01:02:05;;;;;;;16.32;7.25;;;;;;;23.23;67.81;98583.28;2281905;77;20934;-78
2021/07/15 01:05:06;;;;;;;13.13;7.67;;;;;;;23.61;67.32;98567.00;2281824;78;21270;-79
2021/07/15 01:08:07;;;;;;;15.85;7.17;;;;;;;23.77;66.31;98553.37;2268495;77;20940;-79
2021/07/15 01:11:08;;;;;;;15.98;7.42;;;;;;;23.45;65.43;98531.30;2249549;79;20901;-78
2021/07/15 01:14:09;;;;;;;12.73;7.08;;;;;;;22.94;66.26;98521.98;2249624;79;20964;-79
2021/07/15 01:17:10;;;;;;;16.70;6.72;;;;;;;22.92;67.21;98513.66;2249372;79;20939;-79
2021/07/15 01:20:11;;;;;;;16.35;7.28;;;;;;;23.32;67.80;98506.98;2249177;79;21276;-78
2021/07/15 01:23:12;;;;;;;10.90;6.78;;;;;;;23.76;66.76;98490.81;2249402;79;20957;-79
2021/07/15 01:26:13;;;;;;;14.33;7.40;;;;;;;23.89;65.66;98511.95;2249652;79;20935;-78
2021/07/15 01:29:14;;;;;;;12.95;6.33;;;;;;;24.14;65.28;98561.84;2249129;79;21371;-78
2021/07/15 01:32:15;;;;;;;13.08;5.83;;;;;;;24.24;64.47;98546.73;2249651;79;20956;-79
2021/07/15 01:35:16;;;;;;;12.75;6.08;;;;;;;24.21;64.22;98511.74;2249545;79;20881;-78
2021/07/15 01:38:17;;;;;;;10.90;5.50;;;;;;;24.14;63.55;98500.52;2249801;79;20901;-78
2021/07/15 01:41:18;;;;;;;10.98;6.03;;;;;;;23.80;64.46;98537.70;2249673;79;20936;-78
2021/07/15 01:44:19;;;;;;;14.65;6.00;;;;;;;23.72;64.75;98592.69;2249764;79;20896;-77
2021/07/15 01:47:19;;;;;;;19.12;6.65;;;;;;;23.51;65.50;98630.45;2249758;79;20928;-78
2021/07/15 01:50:20;;;;;;;9.58;5.87;;;;;;;23.36;65.96;98663.05;2249678;79;20924;-78
2021/07/15 01:53:21;;;;;;;12.53;5.62;;;;;;;23.53;66.55;98694.31;2249416;79;20964;-78
2021/07/15 01:56:22;;;;;;;7.60;5.22;;;;;;;23.74;65.80;98684.09;2249706;79;20924;-78
2021/07/15 01:59:23;;;;;;;11.20;5.58;;;;;;;24.04;65.46;98688.52;2249460;79;20948;-78
2021/07/15 02:02:24;;;;;;;13.40;5.22;;;;;;;24.25;64.23;98683.15;2249444;79;20973;-78
2021/07/15 02:05:25;;;;;;;13.78;6.22;;;;;;;23.97;64.40;98669.74;2249297;79;20904;-77
2021/07/15 02:08:26;;;;;;;11.20;5.70;;;;;;;23.92;64.37;98654.42;2263275;77;20981;-78
2021/07/15 02:11:32;;;;;;;8.00;5.67;;;;;;;23.80;64.41;98669.16;2281767;77;20953;-77
2021/07/15 02:14:30;;;;;;;15.58;6.33;;;;;;;23.51;64.87;98662.88;2281068;78;21290;-78
2021/07/15 02:17:30;;;;;;;10.10;6.17;;;;;;;23.30;65.09;98649.98;2281688;77;20886;-79
2021/07/15 02:20:32;;;;;;;16.52;6.22;;;;;;;23.13;65.49;98632.06;2281588;77;20907;-79
2021/07/15 02:23:33;;;;;;;15.25;7.33;;;;;;;23.14;66.25;98631.60;2281196;78;20978;-78
2021/07/15 02:26:34;;;;;;;11.68;6.45;;;;;;;23.22;65.75;98596.20;2281563;77;20950;-80
2021/07/15 02:29:36;;;;;;;13.90;6.67;;;;;;;22.50;65.28;98599.59;2281480;77;20930;-77
2021/07/15 02:32:37;;;;;;;21.25;7.15;;;;;;;21.81;66.41;98623.50;2281698;78;20911;-80
2021/07/15 02:35:38;;;;;;;16.12;8.03;;;;;;;21.29;67.96;98634.63;2281689;78;20915;-79
2021/07/15 02:38:39;;;;;;;13.32;7.17;;;;;;;20.90;68.90;98642.58;2281617;78;20918;-79
2021/07/15 02:41:40;;;;;;;14.73;8.38;;;;;;;20.79;72.37;98625.66;2281495;78;20913;-79
2021/07/15 02:44:42;;;;;;;14.98;8.13;;;;;;;21.54;73.01;98616.50;2281502;77;20910;-76
2021/07/15 02:47:43;;;;;;;18.02;8.93;;;;;;;22.09;72.22;98620.70;2282138;77;20922;-78
2021/07/15 02:50:44;;;;;;;15.63;7.20;;;;;;;22.45;71.24;98632.16;2281885;77;21302;-79
2021/07/15 02:53:45;;;;;;;14.53;6.55;;;;;;;22.38;69.49;98642.17;2281390;78;20946;-79
2021/07/15 02:56:46;;;;;;;14.07;7.37;;;;;;;22.24;69.64;98605.48;2281830;77;21275;-78
2021/07/15 02:59:47;;;;;;;14.25;7.42;;;;;;;22.28;70.49;98578.31;2281650;78;20930;-78
2021/07/15 03:02:48;;;;;;;13.25;7.28;;;;;;;22.41;70.40;98582.68;2282038;77;20970;-78
2021/07/15 03:05:49;;;;;;;12.45;7.65;;;;;;;22.65;70.62;98579.06;2281323;77;20907;-78
2021/07/15 03:08:50;;;;;;;17.40;7.30;;;;;;;22.82;70.54;98571.27;2265518;77;20936;-78
2021/07/15 03:11:51;;;;;;;15.20;6.80;;;;;;;23.09;68.67;98578.55;2250534;79;20917;-78
2021/07/15 03:14:52;;;;;;;11.10;7.03;;;;;;;22.98;69.01;98565.30;2250185;79;20912;-79
2021/07/15 03:17:53;;;;;;;11.40;7.50;;;;;;;22.98;69.05;98567.97;2250300;79;20952;-79
2021/07/15 03:20:54;;;;;;;15.13;7.87;;;;;;;23.05;69.08;98549.00;2249858;79;21296;-79
2021/07/15 03:23:55;;;;;;;14.60;6.85;;;;;;;22.96;68.79;98527.23;2249691;79;20952;-79
2021/07/15 03:26:56;;;;;;;16.00;6.97;;;;;;;22.99;69.42;98525.78;2250132;79;21300;-78
2021/07/15 03:29:56;;;;;;;13.28;7.65;;;;;;;23.07;68.49;98546.27;2250164;79;21343;-78
2021/07/15 03:32:57;;;;;;;17.07;7.78;;;;;;;22.99;69.76;98563.91;2248748;79;21332;-77
2021/07/15 03:35:58;;;;;;;14.83;8.30;;;;;;;23.40;68.90;98571.89;2249123;79;20921;-78
2021/07/15 03:38:59;;;;;;;14.03;7.10;;;;;;;23.48;67.86;98594.62;2249316;79;20935;-77
2021/07/15 03:42:00;;;;;;;13.13;6.47;;;;;;;23.15;66.98;98592.93;2249257;79;20931;-77
2021/07/15 03:45:01;;;;;;;14.73;7.20;;;;;;;22.86;69.50;98603.95;2249067;79;21299;-77
2021/07/15 03:48:02;;;;;;;12.28;6.42;;;;;;;22.92;68.71;98597.50;2249069;79;20944;-76
2021/07/15 03:51:03;;;;;;;14.45;6.53;;;;;;;22.92;68.06;98587.72;2249046;79;21340;-77
2021/07/15 03:54:04;;;;;;;11.48;6.17;;;;;;;22.86;67.71;98568.02;2249168;79;21189;-77
2021/07/15 03:57:05;;;;;;;16.02;6.75;;;;;;;22.82;69.63;98553.98;2249092;79;20923;-77
2021/07/15 04:00:06;;;;;;;15.65;6.95;;;;;;;22.53;67.17;98550.27;2248763;79;20916;-77
2021/07/15 04:03:07;;;;;;;17.05;7.42;;;;;;;22.74;71.24;98587.98;2248826;79;21395;-77
2021/07/15 04:06:08;;;;;;;14.85;7.35;;;;;;;22.91;69.72;98583.33;2249360;79;20932;-77
2021/07/15 04:09:09;;;;;;;14.80;7.72;;;;;;;23.05;69.87;98585.41;2264644;77;20997;-77
2021/07/15 04:12:10;;;;;;;20.90;7.35;;;;;;;23.25;69.55;98572.09;2281269;77;21282;-78
2021/07/15 04:15:14;;;;;;;15.28;7.67;;;;;;;23.38;69.03;98559.97;2281798;78;20953;-78
2021/07/15 04:18:15;;;;;;;;;;;;;;;23.39;68.94;98543.52;2284095;77;20917;-77
2021/07/15 04:21:16;;;;;;;16.10;7.35;;;;;;;22.66;67.33;98495.66;2281263;78;20093;-77
2021/07/15 04:24:20;;;;;;;13.85;7.35;;;;;;;22.25;70.42;98481.40;2281391;78;20990;-77
2021/07/15 04:27:21;;;;;;;13.85;7.40;;;;;;;22.70;71.16;98485.29;2281614;77;20975;-77
2021/07/15 04:30:22;;;;;;;21.80;8.08;;;;;;;22.87;68.71;98468.16;2281101;78;20945;-77
2021/07/15 04:33:23;;;;;;;20.20;8.00;;;;;;;22.94;70.87;98483.86;2281396;77;20925;-78
2021/07/15 04:36:24;;;;;;;13.55;7.87;;;;;;;23.32;70.16;98473.69;2281438;78;20941;-78
2021/07/15 04:39:28;;;;;;;14.75;8.45;;;;;;;23.06;68.43;98440.73;2281673;77;20953;-78
2021/07/15 04:42:29;;;;;;;12.03;7.45;;;;;;;22.44;68.32;98400.39;2281847;77;20966;-77
2021/07/15 04:45:30;;;;;;;13.55;7.10;;;;;;;21.82;70.30;98365.33;2281341;78;20906;-78
2021/07/15 04:48:31;;;;;;;12.00;7.37;;;;;;;21.59;71.28;98359.12;2281603;78;20926;-78
2021/07/15 04:51:33;;;;;;;12.13;6.90;;;;;;;22.01;73.56;98362.77;2280838;77;21009;-78
2021/07/15 04:54:38;;;;;;;17.02;7.67;;;;;;;22.48;71.67;98382.05;2281595;77;21394;-76
2021/07/15 04:57:39;;;;;;;14.83;8.05;;;;;;;22.89;71.34;98374.95;2280969;77;20977;-78
2021/07/15 05:00:40;;;;;;;13.65;8.33;;;;;;;23.10;69.65;98399.72;2280820;77;20933;-76
2021/07/15 05:03:41;;;;;;;16.73;7.58;;;;;;;23.11;70.09;98397.45;2281351;77;20870;-80
2021/07/15 05:06:42;;;;;;;16.07;8.40;;;;;;;23.14;69.52;98393.33;2281917;77;21262;-79
2021/07/15 05:09:43;;;;;;;20.57;8.30;;;;;;;23.20;69.46;98394.38;2261297;77;21151;-78
2021/07/15 05:12:44;;;;;;;11.45;6.95;;;;;;;23.01;69.02;98424.09;2249536;79;21316;-81
2021/07/15 05:15:46;;;;;;;24.75;15.15;;;;;;;22.96;70.04;98426.10;2250058;79;20948;-81
2021/07/15 05:18:48;;;;;;;21.83;13.80;;;;;;;23.10;70.53;98446.31;2250621;79;20923;-82
2021/07/15 05:21:49;;;;;;;13.70;7.83;;;;;;;23.05;70.38;98460.30;2249727;79;21303;-81
2021/07/15 05:24:50;;;;;;;15.88;7.67;;;;;;;22.95;71.04;98458.50;2250008;79;20940;-80
2021/07/15 05:27:51;;;;;;;11.65;7.37;;;;;;;22.87;70.72;98461.97;2249708;79;20913;-81
2021/07/15 05:30:52;;;;;;;13.20;8.05;;;;;;;22.70;70.62;98477.30;2249310;79;20931;-81
2021/07/15 05:33:53;;;;;;;12.13;7.60;;;;;;;22.81;71.09;98474.21;2249566;79;20889;-81
2021/07/15 05:36:54;;;;;;;17.37;7.70;;;;;;;22.75;70.46;98511.23;2249864;79;21016;-81
2021/07/15 05:39:55;;;;;;;18.15;8.45;;;;;;;22.51;70.81;98514.42;2249556;79;21299;-81
2021/07/15 05:42:56;;;;;;;18.82;11.28;;;;;;;22.31;72.32;98481.14;2249921;79;21317;-81
2021/07/15 05:45:57;;;;;;;25.12;9.10;;;;;;;22.65;72.02;98465.12;2249562;79;20956;-79
2021/07/15 05:48:58;;;;;;;13.50;8.90;;;;;;;22.60;71.13;98432.08;2249372;79;20935;-80
2021/07/15 05:51:59;;;;;;;26.62;9.53;;;;;;;22.17;72.29;98468.42;2249309;79;20917;-80
2021/07/15 05:55:00;;;;;;;18.12;8.88;;;;;;;22.23;72.63;98430.95;2249049;79;20951;-79
2021/07/15 05:58:01;;;;;;;18.07;9.33;;;;;;;22.44;73.82;98457.56;2249119;79;21023;-79
2021/07/15 06:01:02;;;;;;;24.40;9.25;;;;;;;22.98;72.88;98438.41;2249533;79;20919;-79
2021/07/15 06:04:03;;;;;;;17.35;8.15;;;;;;;23.39;71.38;98441.85;2249765;79;20959;-80
2021/07/15 06:07:04;;;;;;;18.07;8.00;;;;;;;23.34;70.75;98458.98;2249930;79;20873;-80
2021/07/15 06:10:05;;;;;;;14.10;8.13;;;;;;;23.27;71.61;98443.75;2270299;78;20962;-81
2021/07/15 06:13:06;;;;;;;11.18;8.40;;;;;;;23.51;71.09;98457.30;2282689;78;21090;-81
2021/07/15 06:16:07;;;;;;;17.52;11.60;;;;;;;23.56;70.79;98489.55;2282973;78;20910;-82
2021/07/15 06:19:08;;;;;;;18.98;9.40;;;;;;;23.11;70.80;98525.24;2281912;78;20949;-81
2021/07/15 06:22:09;;;;;;;20.57;9.23;;;;;;;22.54;72.01;98574.61;2281964;77;20966;-81
2021/07/15 06:25:10;;;;;;;15.20;8.65;;;;;;;22.21;74.02;98531.63;2282177;77;20891;-82
2021/07/15 06:28:11;;;;;;;12.53;8.70;;;;;;;22.52;73.64;98557.38;2280509;77;21365;-81
2021/07/15 06:31:12;;;;;;;17.10;9.45;;;;;;;22.28;73.72;98539.77;2280067;77;20974;-82
2021/07/15 06:34:13;;;;;;;16.65;8.83;;;;;;;22.16;74.06;98550.89;2279915;78;20882;-81
2021/07/15 06:37:14;;;;;;;18.73;9.50;;;;;;;22.52;75.01;98562.70;2279750;78;20906;-81
2021/07/15 06:40:15;;;;;;;18.30;9.43;;;;;;;22.68;73.98;98578.93;2280717;77;20981;-80
2021/07/15 06:43:16;;;;;;;18.00;9.85;;;;;;;22.43;74.06;98631.36;2281039;78;20922;-80
2021/07/15 06:46:17;;;;;;;18.10;10.00;;;;;;;21.98;75.30;98596.75;2280577;77;20965;-80
2021/07/15 06:49:18;;;;;;;20.50;9.43;;;;;;;21.91;76.79;98581.05;2280586;78;20945;-80
2021/07/15 06:52:19;;;;;;;16.45;9.33;;;;;;;22.20;75.78;98604.34;2280536;77;20934;-81
2021/07/15 06:55:20;;;;;;;16.02;8.83;;;;;;;22.22;75.34;98621.95;2280811;78;20898;-80
2021/07/15 06:58:21;;;;;;;15.43;9.68;;;;;;;22.16;75.41;98644.80;2281457;78;20969;-81
2021/07/15 07:01:22;;;;;;;17.17;8.70;;;;;;;22.24;75.50;98629.41;2281221;78;20870;-80
2021/07/15 07:04:23;;;;;;;18.77;9.48;;;;;;;22.10;75.04;98631.73;2281535;78;21013;-80
2021/07/15 07:07:24;;;;;;;13.93;8.35;;;;;;;21.93;76.00;98582.31;2281682;77;20914;-81
2021/07/15 07:10:25;;;;;;;15.93;8.78;;;;;;;21.90;75.34;98549.21;2287778;77;20943;-81
2021/07/15 07:13:27;;;;;;;13.43;7.37;;;;;;;22.07;76.20;98573.84;2290631;78;20987;-82
2021/07/15 07:16:28;;;;;;;15.40;7.58;;;;;;;22.42;74.93;98533.42;2291321;78;20959;-81
2021/07/15 07:19:29;;;;;;;12.28;7.25;;;;;;;22.65;74.59;98516.54;2291728;78;21332;-81
2021/07/15 07:22:30;;;;;;;19.57;8.58;;;;;;;22.89;73.97;98533.30;2291254;78;20995;-81
2021/07/15 07:25:30;;;;;;;12.70;7.60;;;;;;;23.11;73.46;98516.79;2291817;78;20939;-80
2021/07/15 07:28:33;;;;;;;16.20;7.80;;;;;;;23.23;72.63;98499.41;2291194;78;20986;-80
2021/07/15 07:31:34;;;;;;;14.45;7.55;;;;;;;23.41;72.39;98516.39;2291509;78;21177;-80
2021/07/15 07:34:36;;;;;;;23.55;17.45;;;;;;;23.54;72.06;98522.89;2291354;78;20973;-82
2021/07/15 07:37:37;;;;;;;21.30;16.40;;;;;;;23.63;71.69;98541.62;2291441;78;20944;-81
2021/07/15 07:40:38;;;;;;;15.48;8.55;;;;;;;23.79;71.49;98561.30;2291437;78;20916;-82
2021/07/15 07:43:41;;;;;;;;;;;;;;;23.93;71.31;98586.84;2294311;78;20932;-81
2021/07/15 07:46:42;;;;;;;14.20;7.47;;;;;;;24.06;71.23;98597.80;2291913;78;20080;-82
2021/07/15 07:49:43;;;;;;;18.27;7.55;;;;;;;24.15;70.95;98602.23;2291774;78;20983;-80
2021/07/15 07:52:44;;;;;;;14.50;7.70;;;;;;;24.24;71.48;98616.08;2292670;78;20971;-82
2021/07/15 07:55:46;;;;;;;13.60;7.20;;;;;;;24.15;70.54;98662.23;2291645;78;20929;-81
2021/07/15 07:58:47;;;;;;;11.93;7.00;;;;;;;23.74;70.75;98690.75;2290302;78;21288;-81
2021/07/15 08:01:48;;;;;;;8.83;6.40;;;;;;;23.62;71.85;98728.59;2290688;78;20936;-81
2021/07/15 08:04:50;;;;;;;10.32;5.65;;;;;;;23.48;72.19;98728.28;2291113;78;21008;-82
2021/07/15 08:07:51;;;;;;;12.50;5.90;;;;;;;23.47;72.06;98730.08;2291445;78;20951;-82
2021/07/15 08:10:52;;;;;;;8.35;5.25;;;;;;;23.48;70.95;98738.47;2291356;78;20975;-82
2021/07/15 08:13:53;;;;;;;10.80;6.00;;;;;;;23.37;70.64;98719.38;2291366;78;20964;-83
2021/07/15 08:16:54;;;;;;;11.97;6.62;;;;;;;23.46;70.87;98732.34;2291888;78;20928;-81
2021/07/15 08:19:55;;;;;;;10.85;6.17;;;;;;;23.71;70.85;98710.01;2292244;78;20946;-82
2021/07/15 08:22:56;;;;;;;10.28;6.28;;;;;;;24.24;69.88;98698.28;2291400;78;21014;-83
2021/07/15 08:25:56;;;;;;;11.38;6.25;;;;;;;24.64;68.29;98684.02;2291708;78;20920;-83
2021/07/15 08:28:58;;;;;;;12.43;6.50;;;;;;;25.10;66.97;98667.13;2291859;78;20920;-82
2021/07/15 08:31:59;;;;;;;11.55;6.95;;;;;;;25.70;65.99;98672.55;2291770;78;20916;-83
2021/07/15 08:35:00;;;;;;;13.28;6.55;;;;;;;25.83;65.74;98679.45;2291583;78;20980;-82
2021/07/15 08:38:02;;;;;;;8.78;6.15;;;;;;;25.75;64.64;98677.65;2292002;78;20904;-83
2021/07/15 08:41:03;;;;;;;17.75;6.85;;;;;;;25.56;64.89;98670.16;2291951;78;20888;-82
2021/07/15 08:44:04;;;;;;;10.55;6.40;;;;;;;25.28;65.02;98666.70;2291893;78;20928;-82
2021/07/15 08:47:05;;;;;;;16.20;6.70;;;;;;;25.06;65.25;98656.20;2291880;78;20927;-83
2021/07/15 08:50:06;;;;;;;17.52;6.67;;;;;;;25.03;65.49;98663.02;2291893;78;20936;-82
2021/07/15 08:53:07;;;;;;;11.73;6.50;;;;;;;24.74;65.84;98685.30;2291574;78;20971;-83
2021/07/15 08:59:27;;;;;;;16.90;8.70;;;;;;;24.51;66.77;98685.53;2290805;78;20984;-83
2021/07/15 09:02:28;;;;;;;13.70;8.10;;;;;;;24.38;66.60;98707.92;2291066;78;20917;-82
2021/07/15 09:05:29;;;;;;;19.48;8.83;;;;;;;23.98;67.46;98718.59;2291338;78;20912;-81
2021/07/15 09:08:31;;;;;;;20.32;7.85;;;;;;;23.75;68.03;98722.27;2290803;78;20987;-80
2021/07/15 09:11:32;;;;;;;21.12;8.43;;;;;;;23.43;68.23;98735.13;2290890;78;20968;-81
2021/07/15 09:14:33;;;;;;;22.70;9.15;;;;;;;23.15;70.18;98765.99;2291467;78;20987;-83
2021/07/15 09:17:35;;;;;;;14.80;7.00;;;;;;;22.76;72.00;98763.54;2290896;78;20919;-82
2021/07/15 09:20:36;;;;;;;23.27;7.97;;;;;;;22.31;71.81;98767.44;2290705;78;21305;-81
2021/07/15 09:23:37;;;;;;;15.58;8.58;;;;;;;22.05;73.61;98743.14;2291296;78;20990;-82
2021/07/15 09:26:38;;;;;;;16.82;7.28;;;;;;;21.80;74.20;98743.98;2290877;78;20916;-83
2021/07/15 09:29:39;;;;;;;21.85;8.25;;;;;;;21.85;74.00;98762.41;2290723;78;20912;-81
2021/07/15 09:32:40;;;;;;;24.25;9.80;;;;;;;21.80;74.33;98769.67;2291358;78;20908;-81
2021/07/15 09:35:41;;;;;;;63.15;13.93;;;;;;;21.61;75.56;98768.08;2291318;78;20944;-80
2021/07/15 09:38:42;;;;;;;19.95;8.83;;;;;;;21.78;76.87;98747.15;2291723;78;20948;-83
2021/07/15 09:41:42;;;;;;;18.32;7.50;;;;;;;22.27;75.02;98709.98;2291337;78;21023;-82
2021/07/15 09:44:46;;;;;;;18.42;11.75;;;;;;;22.61;73.72;98682.99;2291311;78;20936;-79
2021/07/15 09:47:48;;;;;;;16.30;8.90;;;;;;;22.86;72.80;98680.66;2291218;78;20924;-81
2021/07/15 09:50:49;;;;;;;16.77;7.97;;;;;;;23.11;72.23;98688.50;2291102;78;20996;-81
2021/07/15 09:53:50;;;;;;;10.95;7.50;;;;;;;23.49;71.98;98676.27;2291280;78;20988;-81
2021/07/15 09:56:52;;;;;;;11.85;6.97;;;;;;;23.82;71.65;98679.29;2290891;78;20931;-81
2021/07/15 09:59:52;;;;;;;15.38;6.90;;;;;;;24.27;70.32;98663.50;2290391;78;20951;-81
2021/07/15 10:02:53;;;;;;;11.80;6.37;;;;;;;24.74;68.95;98651.08;2290680;78;20988;-80
2021/07/15 10:06:01;;;;;;;15.53;6.62;;;;;;;25.15;67.67;98643.75;2290674;78;21016;-81
2021/07/15 10:08:58;;;;;;;11.67;6.53;;;;;;;25.34;67.49;98637.87;2290577;77;21355;-81
2021/07/15 10:12:00;;;;;;;14.87;6.00;;;;;;;25.68;65.60;98634.34;2250009;77;21016;-81
2021/07/15 10:15:01;;;;;;;18.30;10.25;;;;;;;25.95;65.49;98638.69;2248282;79;21340;-80
2021/07/15 10:18:02;;;;;;;12.73;9.48;;;;;;;26.12;64.66;98642.29;2249074;79;20951;-79
2021/07/15 10:21:03;;;;;;;14.55;6.33;;;;;;;26.23;63.56;98641.23;2249481;79;20920;-82
2021/07/15 10:24:03;;;;;;;11.03;5.60;;;;;;;26.41;63.72;98627.34;2249308;79;20979;-81
2021/07/15 10:27:04;;;;;;;13.25;5.90;;;;;;;26.51;63.35;98621.38;2249449;79;20935;-80
2021/07/15 10:30:05;;;;;;;11.68;5.92;;;;;;;26.57;63.22;98614.82;2248644;79;20946;-81
2021/07/15 10:33:06;;;;;;;8.05;5.12;;;;;;;26.72;62.83;98609.93;2249218;79;20881;-81
2021/07/15 10:36:07;;;;;;;14.35;5.45;;;;;;;26.76;63.12;98597.23;2249220;79;20916;-82
2021/07/15 10:39:11;;;;;;;7.25;4.65;;;;;;;26.77;62.79;98593.59;2249265;79;20873;-81
2021/07/15 10:42:11;;;;;;;11.10;5.83;;;;;;;26.80;62.18;98592.08;2249669;79;20913;-81
2021/07/15 10:45:12;;;;;;;6.72;4.62;;;;;;;26.77;62.50;98565.48;2249547;79;20947;-82
2021/07/15 10:48:13;;;;;;;7.22;5.25;;;;;;;26.55;62.63;98542.64;2249912;79;20916;-83
2021/07/15 10:51:14;;;;;;;11.78;5.35;;;;;;;26.63;63.15;98540.86;2249738;79;20927;-81
2021/07/15 10:54:16;;;;;;;11.68;7.72;;;;;;;26.65;63.29;98555.88;2249421;79;20944;-83
2021/07/15 10:57:17;;;;;;;7.80;6.00;;;;;;;26.65;63.67;98565.25;2249796;79;21015;-82
2021/07/15 11:00:18;;;;;;;10.75;5.20;;;;;;;26.75;63.83;98573.61;2248841;79;20952;-82
2021/07/15 11:03:19;;;;;;;14.68;10.72;;;;;;;26.79;63.54;98595.71;2249066;79;20896;-81
2021/07/15 11:06:20;;;;;;;13.58;5.85;;;;;;;26.85;64.09;98592.67;2249926;79;20964;-83
2021/07/15 11:09:22;;;;;;;8.45;5.80;;;;;;;26.78;64.28;98583.27;2249638;79;21388;-81
2021/07/15 11:12:23;;;;;;;9.43;5.40;;;;;;;26.85;64.18;98556.53;2290042;77;20955;-81
2021/07/15 11:15:24;;;;;;;11.43;5.60;;;;;;;26.77;63.49;98558.31;2291476;78;20917;-81
2021/07/15 11:18:25;;;;;;;9.50;5.35;;;;;;;26.75;64.06;98560.22;2291446;78;20917;-82
2021/07/15 11:21:26;;;;;;;8.55;4.92;;;;;;;26.77;62.50;98556.11;2291346;78;20916;-81
2021/07/15 11:24:29;;;;;;;15.05;5.78;;;;;;;26.72;63.29;98557.72;2291439;78;21757;-81
2021/07/15 11:27:31;;;;;;;13.95;5.58;;;;;;;26.94;62.14;98564.05;2291940;78;20881;-82
2021/07/15 11:30:32;;;;;;;16.33;6.37;;;;;;;27.00;61.89;98582.95;2292009;78;20975;-82
2021/07/15 11:33:33;;;;;;;12.70;6.50;;;;;;;27.06;62.16;98586.13;2291724;78;21607;-80
2021/07/15 11:36:35;;;;;;;18.02;7.00;;;;;;;27.19;61.17;98587.59;2291500;78;21324;-80
2021/07/15 11:39:36;;;;;;;15.28;6.55;;;;;;;27.31;60.96;98572.59;2291177;78;20981;-81
2021/07/15 11:42:38;;;;;;;14.47;6.90;;;;;;;27.44;57.94;98544.09;2291370;78;20948;-81
2021/07/15 11:45:39;;;;;;;13.22;6.42;;;;;;;27.16;58.96;98549.80;2292238;78;20894;-82
2021/07/15 11:48:40;;;;;;;15.63;6.60;;;;;;;27.13;58.67;98549.12;2292034;78;20940;-80
2021/07/15 11:51:41;;;;;;;10.95;6.95;;;;;;;27.43;59.45;98558.45;2292776;78;20927;-81
2021/07/15 11:54:43;;;;;;;12.33;7.30;;;;;;;27.57;56.98;98562.02;2294867;77;21376;-80
2021/07/15 11:57:44;;;;;;;14.85;7.87;;;;;;;27.74;58.65;98573.06;2298920;77;20957;-80
2021/07/15 12:00:45;;;;;;;14.45;6.50;;;;;;;28.18;57.23;98578.81;2295493;77;21260;-81
2021/07/15 12:03:46;;;;;;;12.35;6.17;;;;;;;28.51;57.03;98583.37;2291209;78;20920;-81
2021/07/15 12:06:49;;;;;;;11.50;7.00;;;;;;;28.77;56.85;98587.06;2291522;78;20960;-81
2021/07/15 12:09:51;;;;;;;15.25;7.03;;;;;;;28.95;56.33;98583.67;2290705;77;21000;-80
2021/07/15 12:12:52;;;;;;;14.40;7.37;;;;;;;29.18;55.93;98591.52;2281408;78;20942;-79
2021/07/15 12:15:54;;;;;;;15.70;7.20;;;;;;;29.34;55.91;98594.88;2280591;78;20912;-80
2021/07/15 12:18:54;;;;;;;18.07;8.03;;;;;;;29.37;55.08;98589.77;2281225;77;20883;-80
2021/07/15 12:21:55;;;;;;;15.48;7.22;;;;;;;29.36;55.23;98580.84;2280811;77;20922;-79
2021/07/15 12:24:56;;;;;;;16.77;7.62;;;;;;;29.31;55.12;98582.13;2281091;78;20985;-77
2021/07/15 12:27:57;;;;;;;19.87;8.35;;;;;;;29.28;54.92;98575.63;2282046;77;21013;-79
2021/07/15 12:30:58;;;;;;;33.63;26.17;;;;;;;29.40;54.88;98574.78;2281431;78;20985;-79
2021/07/15 12:34:00;;;;;;;20.25;12.75;;;;;;;29.51;54.46;98575.44;2281551;78;20982;-80
2021/07/15 12:37:01;;;;;;;18.70;11.05;;;;;;;29.42;54.05;98575.05;2281218;78;20945;-79
2021/07/15 12:40:02;;;;;;;14.68;8.53;;;;;;;29.40;54.23;98569.40;2281667;78;21584;-80
2021/07/15 12:43:03;;;;;;;10.93;7.30;;;;;;;29.36;54.46;98567.41;2281576;78;20902;-80
2021/07/15 12:46:04;;;;;;;13.00;8.23;;;;;;;29.40;54.63;98564.88;2281665;77;20914;-82
2021/07/15 12:49:05;;;;;;;18.67;9.00;;;;;;;29.23;54.61;98562.98;2282171;78;20942;-81
2021/07/15 12:52:06;;;;;;;14.35;8.03;;;;;;;29.33;54.78;98565.41;2281585;77;20926;-80
2021/07/15 12:55:07;;;;;;;11.93;7.80;;;;;;;29.36;54.62;98561.17;2281480;77;20969;-81
2021/07/15 12:58:08;;;;;;;14.70;8.58;;;;;;;29.38;54.48;98567.30;2280887;78;20944;-80
2021/07/15 13:01:09;;;;;;;11.22;7.92;;;;;;;29.48;54.04;98564.41;2281124;77;20953;-80
2021/07/15 13:04:10;;;;;;;14.85;8.00;;;;;;;29.61;53.75;98561.73;2280792;77;20914;-79
2021/07/15 13:07:14;;;;;;;13.65;8.23;;;;;;;29.77;52.65;98551.13;2280217;78;20941;-79
2021/07/15 13:10:29;;;;;;;12.78;8.25;;;;;;;29.77;52.65;98551.13;2277119;77;21002;-80
2021/07/15 13:16:39;;;;;;;34.58;11.22;;;;;;;30.02;52.25;98565.06;2248446;79;20969;-79
2021/07/15 13:19:40;;;;;;;13.88;7.75;;;;;;;30.09;52.02;98562.78;2248667;79;20964;-80
2021/07/15 13:22:41;;;;;;;14.47;8.63;;;;;;;30.04;52.27;98573.89;2249190;79;20944;-81
2021/07/15 13:25:42;;;;;;;14.15;8.63;;;;;;;30.09;51.79;98577.11;2248883;79;20968;-79
2021/07/15 13:28:43;;;;;;;16.07;9.15;;;;;;;30.18;51.72;98580.10;2248888;79;20976;-80
2021/07/15 13:31:44;;;;;;;15.50;9.10;;;;;;;29.89;51.91;98574.09;2249899;79;20919;-79
2021/07/15 13:34:45;;;;;;;12.82;8.38;;;;;;;29.88;52.33;98571.02;2249620;79;20912;-80
2021/07/15 13:37:46;;;;;;;14.80;8.65;;;;;;;29.90;52.72;98572.63;2249301;79;20904;-78
2021/07/15 13:40:46;;;;;;;18.75;8.23;;;;;;;29.95;53.10;98575.00;2249058;79;20947;-80
2021/07/15 13:43:47;;;;;;;12.28;7.95;;;;;;;30.02;52.93;98576.31;2248854;79;20976;-80
2021/07/15 13:46:48;;;;;;;44.75;34.43;;;;;;;30.02;52.39;98579.86;2249162;79;21261;-80
2021/07/15 13:49:49;;;;;;;20.90;13.13;;;;;;;30.04;52.44;98575.72;2249275;79;21035;-80
2021/07/15 13:52:50;;;;;;;10.68;7.83;;;;;;;29.92;52.57;98573.39;2249459;79;20904;-79
2021/07/15 13:55:51;;;;;;;15.15;8.30;;;;;;;29.77;52.78;98579.37;2249168;79;20983;-80
2021/07/15 13:58:52;;;;;;;22.00;8.68;;;;;;;29.73;52.96;98578.34;2249511;79;20913;-80
2021/07/15 14:01:53;;;;;;;13.25;8.15;;;;;;;29.72;52.74;98582.01;2249137;79;20928;-79
2021/07/15 14:04:54;;;;;;;12.90;8.78;;;;;;;29.67;53.12;98580.98;2249354;79;20912;-80
2021/07/15 14:07:55;;;;;;;16.40;8.28;;;;;;;29.68;53.05;98584.05;2248552;79;21326;-81
2021/07/15 14:10:56;;;;;;;15.68;7.85;;;;;;;29.65;52.82;98580.72;2259281;78;21020;-79